Green Bluff, Washington
Current Conditions -  °F | °C
As of 11:53 PM on Thursday 27 Nov 2014 (Local Time) from KSFF Reporting Station
Clear Clear  
Wind Chill: 52°   Ceiling: Unl
Heat Index: 52°   Visibility: 10mi
Dew Point: 42°   Wind: 22mph
Humidity: 69%   Direction: 230°SW
Pressure: 29.7"   Gusts: 33mph
Location:  47.8288°N, 117.215°W
Report Text: KSFF 280753Z AUTO 23019G29KT 10SM CLR 11/06 A2970 RMK AO2 PK WND 22031/0725 SLP054 T01110056 401500056
Loading
Personal Weather Stations






























Interactive Weather Map New forecast layout! Learn more

10-Day Weather Forecast

Advertisements
Track Severe Weather on mobile